ADDS METAR Data INFO
IDs: Format: Raw Decoded Include TAF

Data at: 2111 UTC 22 Oct 2017

KACJ 222055Z AUTO 13005KT 10SM SCT055 28/16 A3011 RMK AO2
KACJ 222035Z AUTO 15005KT 10SM SCT041 SCT060 28/16 A3011 RMK AO2
KACJ 222015Z AUTO 11008KT 10SM BKN041 BKN050 OVC070 29/16 A3012 RMK AO2
KACJ 221955Z AUTO 13006KT 10SM SCT041 BKN070 28/16 A3012 RMK AO2
KACJ 221935Z AUTO 14006KT 10SM SCT041 SCT046 30/15 A3013 RMK AO2
KACJ 221915Z AUTO 11007G14KT 10SM SCT041 SCT050 SCT065 29/16 A3013 RMK AO2
KACJ 221855Z AUTO 13007KT 10SM SCT065 28/16 A3013 RMK AO2
KACJ 221835Z AUTO 10008KT 10SM SCT039 SCT065 29/16 A3014 RMK AO2
KACJ 221815Z AUTO 15009KT 10SM SCT037 30/16 A3016 RMK AO2
KACJ 221755Z AUTO 12009KT 10SM SCT039 29/15 A3017 RMK AO2
KACJ 221735Z AUTO 12007G14KT 090V150 10SM SCT037 SCT049 29/15 A3018 RMK AO2
KACJ 221715Z AUTO 15008G16KT 10SM SCT037 BKN049 28/15 A3019 RMK AO2
KACJ 221655Z AUTO 14010KT 10SM SCT034 SCT041 BKN048 28/16 A3020 RMK AO2
KACJ 221635Z AUTO 13008G15KT 10SM SCT030 BKN040 BKN049 27/16 A3021 RMK AO2
KACJ 221615Z AUTO 13010G17KT 10SM SCT028 BKN034 BKN047 27/16 A3021 RMK AO2
KACJ 221555Z AUTO 14008G17KT 10SM SCT023 BKN029 BKN034 26/17 A3022 RMK AO2
KACJ 221535Z AUTO 13008KT 10SM BKN023 26/17 A3023 RMK AO2
KACJ 221515Z AUTO 11007KT 10SM SCT019 SCT024 SCT048 25/18 A3023 RMK AO2
KACJ 221455Z AUTO 13009KT 10SM SCT019 BKN046 BKN050 24/19 A3024 RMK AO2
KACJ 221435Z AUTO 11005KT 10SM OVC042 23/20 A3024 RMK AO2
KACJ 221415Z AUTO 10007KT 10SM SCT013 BKN038 OVC048 22/20 A3024 RMK AO2
KACJ 221355Z AUTO 10005KT 10SM SCT036 OVC048 22/20 A3024 RMK AO2
KACJ 221335Z AUTO 10005KT 10SM SCT006 OVC036 20/20 A3025 RMK AO2
KACJ 221315Z AUTO 11006KT 10SM SCT006 SCT011 BKN038 20/20 A3024 RMK AO2
KACJ 221255Z AUTO 10005KT 10SM SCT006 BKN024 18/18 A3024 RMK AO2
KACJ 221235Z AUTO 10003KT 10SM BKN024 BKN037 OVC055 18/18 A3024 RMK AO2
KACJ 221215Z AUTO 08003KT 10SM SCT026 BKN035 BKN055 17/17 A3024 RMK AO2
KACJ 221155Z AUTO 10003KT 10SM BKN026 BKN065 18/18 A3023 RMK AO2
KACJ 221135Z AUTO 10005KT 10SM SCT055 OVC065 18/18 A3023 RMK AO2
KACJ 221115Z AUTO 00000KT 10SM SCT049 OVC065 18/18 A3023 RMK AO2
KACJ 221055Z AUTO 00000KT 10SM BKN049 OVC065 18/18 A3023 RMK AO2
KACJ 221035Z AUTO 07003KT 10SM SCT049 OVC055 17/17 A3023 RMK AO2
KACJ 221015Z AUTO 06003KT 10SM SCT006 BKN055 17/17 A3022 RMK AO2
KACJ 220955Z AUTO 07004KT 10SM SCT006 OVC055 17/17 A3021 RMK AO2
KACJ 220935Z AUTO 07003KT 10SM SCT048 BKN055 18/18 A3021 RMK AO2
KACJ 220915Z AUTO 09004KT 10SM BKN048 BKN055 18/18 A3021 RMK AO2
KACJ 220855Z AUTO 10004KT 10SM BKN048 OVC055 18/18 A3021 RMK AO2
KACJ 220835Z AUTO 09004KT 10SM BKN048 OVC055 18/18 A3021 RMK AO2
KACJ 220815Z AUTO 09005KT 10SM OVC050 18/18 A3021 RMK AO2
KACJ 220755Z AUTO 09003KT 10SM OVC050 17/17 A3021 RMK AO2
KACJ 220735Z AUTO 08003KT 10SM BKN050 17/17 A3022 RMK AO2
KACJ 220715Z AUTO 08004KT 10SM CLR 17/17 A3021 RMK AO2
KACJ 220655Z AUTO 10003KT 10SM CLR 17/17 A3022 RMK AO2
KACJ 220635Z AUTO 08003KT 10SM CLR 17/17 A3023 RMK AO2
KACJ 220615Z AUTO 09003KT 10SM CLR 17/17 A3024 RMK AO2
KACJ 220555Z AUTO 09003KT 10SM CLR 17/17 A3024 RMK AO2
KACJ 220535Z AUTO 10004KT 10SM CLR 18/18 A3024 RMK AO2
KACJ 220515Z AUTO 10003KT 10SM CLR 18/18 A3024 RMK AO2
KACJ 220455Z AUTO 11004KT 10SM CLR 18/18 A3024 RMK AO2
KACJ 220435Z AUTO 09004KT 10SM CLR 18/18 A3025 RMK AO2
KACJ 220415Z AUTO 10004KT 10SM CLR 18/15 A3025 RMK AO2
KACJ 220355Z AUTO 10004KT 10SM CLR 19/15 A3025 RMK AO2
KACJ 220335Z AUTO 12004KT 10SM CLR 19/15 A3025 RMK AO2
KACJ 220315Z AUTO 12005KT 10SM CLR 19/14 A3025 RMK AO2
KACJ 220255Z AUTO 11004KT 10SM CLR 20/13 A3026 RMK AO2
KACJ 220235Z AUTO 10004KT 10SM SCT040 20/13 A3026 RMK AO2
KACJ 220215Z AUTO 10005KT 10SM SCT040 20/13 A3025 RMK AO2
KACJ 220155Z AUTO 09004KT 10SM SCT045 21/13 A3025 RMK AO2
KACJ 220135Z AUTO 09005KT 10SM SCT045 20/13 A3025 RMK AO2
KACJ 220115Z AUTO 09003KT 10SM CLR 20/13 A3025 RMK AO2
KACJ 220055Z AUTO 08003KT 10SM CLR 21/13 A3024 RMK AO2
KACJ 220035Z AUTO 08003KT 10SM CLR 21/13 A3024 RMK AO2
KACJ 220015Z AUTO 07004KT 10SM CLR 21/13 A3024 RMK AO2
KACJ 212355Z AUTO 07004KT 10SM CLR 21/14 A3023 RMK AO2
KACJ 212335Z AUTO 06004KT 10SM CLR 21/14 A3023 RMK AO2
KACJ 212315Z AUTO 07003KT 10SM CLR 22/13 A3023 RMK AO2
KACJ 212255Z AUTO 08004KT 10SM CLR 23/13 A3023 RMK AO2
KACJ 212235Z AUTO 08003KT 10SM CLR 23/13 A3023 RMK AO2
KACJ 212215Z AUTO 10003KT 10SM CLR 25/13 A3023 RMK AO2
KACJ 212155Z AUTO 10005KT 10SM CLR 25/13 A3022 RMK AO2
KACJ 212135Z AUTO 12004KT 10SM CLR 26/13 A3022 RMK AO2
KACJ 212115Z AUTO 12005KT 10SM CLR 26/13 A3022 RMK AO2
KACJ 212055Z AUTO 13006KT 10SM CLR 26/13 A3022 RMK AO2
KACJ 212035Z AUTO 12006KT 10SM CLR 27/13 A3022 RMK AO2
KACJ 212015Z AUTO 13005KT 10SM SCT050 27/13 A3022 RMK AO2
KACJ 211955Z AUTO 13006KT 10SM SCT047 BKN050 27/13 A3022 RMK AO2
KACJ 211935Z AUTO 13007KT 10SM SCT046 SCT050 27/13 A3022 RMK AO2
KACJ 211915Z AUTO 11007KT 10SM BKN046 BKN050 27/13 A3022 RMK AO2
KACJ 211855Z AUTO 13008KT 10SM BKN046 BKN050 28/13 A3023 RMK AO2
KACJ 211835Z AUTO 08008KT 10SM BKN044 BKN050 28/13 A3023 RMK AO2
KACJ 211815Z AUTO 11007KT 10SM BKN044 BKN050 27/13 A3023 RMK AO2
KACJ 211755Z AUTO 10009G14KT 050V150 10SM SCT040 OVC050 26/13 A3024 RMK AO2
KACJ 211735Z AUTO 09008G14KT 060V120 10SM BKN042 BKN048 27/13 A3024 RMK AO2
KACJ 211715Z AUTO 09006KT 10SM SCT040 SCT046 26/13 A3025 RMK AO2
KACJ 211655Z AUTO 09008KT 10SM CLR 27/13 A3026 RMK AO2
KACJ 211635Z AUTO 12007KT 10SM CLR 26/13 A3027 RMK AO2
KACJ 211615Z AUTO 10007KT 10SM CLR 26/13 A3028 RMK AO2
KACJ 211555Z AUTO 10008KT 10SM CLR 24/12 A3028 RMK AO2
KACJ 211535Z AUTO 10007KT 10SM CLR 23/12 A3028 RMK AO2
KACJ 211515Z AUTO 10007KT 10SM CLR 23/11 A3028 RMK AO2
KACJ 211455Z AUTO 10006KT 10SM CLR 22/11 A3028 RMK AO2
KACJ 211435Z AUTO 10006KT 10SM CLR 22/12 A3028 RMK AO2
KACJ 211415Z AUTO 09007KT 10SM CLR 21/12 A3028 RMK AO2
KACJ 211355Z AUTO 10006KT 10SM CLR 20/13 A3028 RMK AO2
KACJ 211335Z AUTO 09006KT 10SM CLR 18/16 A3029 RMK AO2
KACJ 211315Z AUTO 07005KT 10SM CLR 16/16 A3028 RMK AO2
KACJ 211255Z AUTO 05003KT 10SM CLR 15/15 A3028 RMK AO2
KACJ 211235Z AUTO 06003KT 10SM CLR 13/13 A3027 RMK AO2
KACJ 211215Z AUTO 05003KT 10SM CLR 12/12 A3026 RMK AO2
KACJ 211155Z AUTO 05004KT 10SM CLR 12/12 A3025 RMK AO2
KACJ 211135Z AUTO 04004KT 10SM CLR 12/12 A3025 RMK AO2
KACJ 211115Z AUTO 06003KT 10SM CLR 11/11 A3025 RMK AO2
KACJ 211055Z AUTO 06004KT 10SM CLR 11/11 A3024 RMK AO2
KACJ 211035Z AUTO 04004KT 10SM CLR 11/11 A3024 RMK AO2
KACJ 211015Z AUTO 00000KT 10SM CLR 11/11 A3023 RMK AO2
KACJ 210955Z AUTO 04003KT 10SM CLR 11/11 A3023 RMK AO2
KACJ 210935Z AUTO 06003KT 10SM CLR 12/12 A3022 RMK AO2
KACJ 210915Z AUTO 07003KT 10SM CLR 12/11 A3022 RMK AO2